createdAt,value
2019-05-20T00:01:46.903Z,0.90
2019-05-20T00:04:13.717Z,1.00
2019-05-20T00:06:40.447Z,0.93
2019-05-20T00:09:07.201Z,1.00
2019-05-20T00:11:34.100Z,0.93
2019-05-20T00:14:00.841Z,1.00
2019-05-20T00:16:27.584Z,1.00
2019-05-20T00:18:54.481Z,1.27
2019-05-20T00:21:21.234Z,1.50
2019-05-20T00:23:47.996Z,1.43
2019-05-20T00:26:14.818Z,1.00
2019-05-20T00:28:41.560Z,0.80
2019-05-20T00:31:08.298Z,1.00
2019-05-20T00:33:35.078Z,0.90
2019-05-20T00:36:01.811Z,1.10
2019-05-20T00:38:28.550Z,1.43
2019-05-20T00:40:55.333Z,1.70
2019-05-20T00:43:22.135Z,1.30
2019-05-20T00:45:48.870Z,2.00
2019-05-20T00:48:15.697Z,2.00
2019-05-20T00:50:42.447Z,1.70
2019-05-20T00:53:09.390Z,1.20
2019-05-20T00:55:38.676Z,1.43
2019-05-20T00:58:05.433Z,1.00
2019-05-20T01:00:32.464Z,0.90
2019-05-20T01:02:59.367Z,0.97
2019-05-20T01:05:26.084Z,0.73
2019-05-20T01:07:52.862Z,0.87
2019-05-20T01:10:20.969Z,0.87
2019-05-20T01:12:47.726Z,1.03
2019-05-20T01:15:14.975Z,1.00
2019-05-20T01:17:41.752Z,0.90
2019-05-20T01:20:08.984Z,1.00
2019-05-20T01:22:35.720Z,1.20
2019-05-20T01:25:04.332Z,1.07
2019-05-20T01:27:31.079Z,1.00
2019-05-20T01:29:57.803Z,1.30
2019-05-20T01:32:24.634Z,0.90
2019-05-20T01:34:51.364Z,0.83
2019-05-20T01:37:18.091Z,1.00
2019-05-20T01:39:44.903Z,1.00
2019-05-20T01:42:11.675Z,1.00
2019-05-20T01:44:38.433Z,1.00
2019-05-20T01:47:05.342Z,1.10
2019-05-20T01:49:32.076Z,0.80
2019-05-20T01:51:58.830Z,1.20
2019-05-20T01:54:25.751Z,1.10
2019-05-20T01:56:52.545Z,1.20
2019-05-20T01:59:19.322Z,1.10
2019-05-20T02:01:46.202Z,1.10
2019-05-20T02:04:12.951Z,1.00
2019-05-20T02:06:39.663Z,1.07
2019-05-20T02:09:07.597Z,1.00
2019-05-20T02:11:34.365Z,1.00
2019-05-20T02:14:01.171Z,1.00
2019-05-20T02:16:28.328Z,1.30
2019-05-20T02:18:55.063Z,1.10
2019-05-20T02:21:21.834Z,1.00
2019-05-20T02:23:48.760Z,1.00
2019-05-20T02:26:15.534Z,1.23
2019-05-20T02:28:42.297Z,1.20
2019-05-20T02:31:09.142Z,0.90
2019-05-20T02:33:50.696Z,1.00
2019-05-20T02:36:04.376Z,0.97
2019-05-20T02:38:31.175Z,0.90
2019-05-20T02:40:57.931Z,0.97
2019-05-20T02:43:24.809Z,1.10
2019-05-20T02:45:51.594Z,1.03
2019-05-20T02:48:18.362Z,1.00
2019-05-20T02:50:45.101Z,1.00
2019-05-20T02:53:11.897Z,1.10
2019-05-20T02:55:38.653Z,1.03
2019-05-20T02:58:05.427Z,0.90
2019-05-20T03:00:32.342Z,1.00
2019-05-20T03:02:59.095Z,1.17
2019-05-20T03:05:25.868Z,1.27
2019-05-20T03:07:52.818Z,1.13
2019-05-20T03:10:19.539Z,1.00
2019-05-20T03:12:46.265Z,1.00
2019-05-20T03:15:13.793Z,1.43
2019-05-20T03:17:40.534Z,2.80
2019-05-20T03:20:07.698Z,2.20
2019-05-20T03:22:34.562Z,1.90
2019-05-20T03:25:01.513Z,2.27
2019-05-20T03:27:28.268Z,2.40
2019-05-20T03:29:55.081Z,2.77
2019-05-20T03:32:21.842Z,3.30
2019-05-20T03:34:58.784Z,3.67
2019-05-20T03:37:17.204Z,2.47
2019-05-20T03:39:43.965Z,2.00
2019-05-20T03:42:10.715Z,1.90
2019-05-20T03:44:37.582Z,1.10
2019-05-20T03:47:04.291Z,2.37
2019-05-20T03:49:31.052Z,2.83
2019-05-20T03:51:57.989Z,2.50
2019-05-20T03:54:24.733Z,2.80
2019-05-20T03:56:51.494Z,3.50
2019-05-20T03:59:18.305Z,4.97
2019-05-20T04:01:45.052Z,3.30
2019-05-20T04:04:11.794Z,2.33
2019-05-20T04:06:38.701Z,5.17
2019-05-20T04:09:06.575Z,3.20
2019-05-20T04:11:33.323Z,2.90
2019-05-20T04:14:00.200Z,2.77
2019-05-20T04:16:26.946Z,2.60
2019-05-20T04:18:54.446Z,2.30
2019-05-20T04:21:21.287Z,2.10
2019-05-20T04:23:48.314Z,1.63
2019-05-20T04:26:15.107Z,2.07
2019-05-20T04:28:41.989Z,3.40
2019-05-20T04:31:08.755Z,3.73
2019-05-20T04:33:35.497Z,1.60
2019-05-20T04:36:02.508Z,1.70
2019-05-20T04:38:29.262Z,1.80
2019-05-20T04:40:56.022Z,1.70
2019-05-20T04:43:22.879Z,1.60
2019-05-20T04:45:49.725Z,2.00
2019-05-20T04:48:16.463Z,1.90
2019-05-20T04:50:43.488Z,2.00
2019-05-20T04:53:10.239Z,2.70
2019-05-20T04:55:37.007Z,2.30
2019-05-20T04:58:03.899Z,2.30
2019-05-20T05:00:47.855Z,2.37
2019-05-20T05:03:14.654Z,2.10
2019-05-20T05:05:41.430Z,2.50
2019-05-20T05:08:08.190Z,2.30
2019-05-20T05:10:34.992Z,2.30
2019-05-20T05:13:01.732Z,2.70
2019-05-20T05:15:28.471Z,2.40
2019-05-20T05:17:55.352Z,2.73
2019-05-20T05:20:22.215Z,2.73
2019-05-20T05:22:48.953Z,2.80
2019-05-20T05:25:15.839Z,2.50
2019-05-20T05:27:42.626Z,2.83
2019-05-20T05:30:09.566Z,2.77
2019-05-20T05:32:36.367Z,3.20
2019-05-20T05:35:05.258Z,2.47
2019-05-20T05:37:32.002Z,2.70
2019-05-20T05:39:58.812Z,3.10
2019-05-20T05:42:25.554Z,2.97
2019-05-20T05:44:52.319Z,3.07
2019-05-20T05:47:19.267Z,3.20
2019-05-20T05:49:46.013Z,3.00
2019-05-20T05:52:12.782Z,3.07
2019-05-20T05:54:39.606Z,3.30
2019-05-20T05:57:06.344Z,3.40
2019-05-20T05:59:33.088Z,2.80
2019-05-20T06:01:59.980Z,2.80
2019-05-20T06:04:26.723Z,2.90
2019-05-20T06:06:53.543Z,3.23
2019-05-20T06:09:20.387Z,2.70
2019-05-20T06:11:47.093Z,2.90
2019-05-20T06:14:13.872Z,2.93
2019-05-20T06:16:41.393Z,2.50
2019-05-20T06:19:08.150Z,2.33
2019-05-20T06:21:54.778Z,3.00
2019-05-20T06:24:21.530Z,2.57
2019-05-20T06:26:48.286Z,2.60
2019-05-20T06:29:15.085Z,2.43
2019-05-20T06:31:42.056Z,2.20
2019-05-20T06:34:08.795Z,2.37
2019-05-20T06:36:35.701Z,2.50
2019-05-20T06:39:04.654Z,2.83
2019-05-20T06:41:31.435Z,2.83
2019-05-20T06:43:58.341Z,2.53
2019-05-20T06:46:25.069Z,2.50
2019-05-20T06:48:51.858Z,2.07
2019-05-20T06:51:18.662Z,1.80
2019-05-20T06:53:45.396Z,2.10
2019-05-20T06:56:12.151Z,2.10
2019-05-20T06:58:39.032Z,1.50
2019-05-20T07:01:05.761Z,1.40
2019-05-20T07:03:32.604Z,1.47
2019-05-20T07:05:59.520Z,1.30
2019-05-20T07:08:26.244Z,1.30
2019-05-20T07:10:53.167Z,1.10
2019-05-20T07:13:39.705Z,1.47
2019-05-20T07:16:06.446Z,1.50
2019-05-20T07:18:33.198Z,1.50
2019-05-20T07:21:00.117Z,1.10
2019-05-20T07:23:26.873Z,1.10
2019-05-20T07:25:53.739Z,1.20
2019-05-20T07:28:21.033Z,1.57
2019-05-20T07:30:47.784Z,2.70
2019-05-20T07:33:14.529Z,2.23
2019-05-20T07:35:41.355Z,2.10
2019-05-20T07:38:08.111Z,2.03
2019-05-20T07:40:34.847Z,2.00
2019-05-20T07:43:02.201Z,1.63
2019-05-20T07:45:32.679Z,1.30
2019-05-20T07:47:59.898Z,1.00
2019-05-20T07:50:28.347Z,1.20
2019-05-20T07:52:55.519Z,1.00
2019-05-20T07:55:27.233Z,1.20
2019-05-20T07:57:59.528Z,1.40
2019-05-20T08:00:26.319Z,1.13
2019-05-20T08:02:53.098Z,1.30
2019-05-20T08:05:19.837Z,0.97
2019-05-20T08:07:52.522Z,1.00
2019-05-20T08:10:15.385Z,1.10
2019-05-20T08:12:42.274Z,1.13
2019-05-20T08:15:09.928Z,1.37
2019-05-20T08:17:36.687Z,1.10
2019-05-20T08:20:07.656Z,1.10
2019-05-20T08:22:34.558Z,1.20
2019-05-20T08:25:02.792Z,1.30
2019-05-20T08:27:29.679Z,1.10
2019-05-20T08:29:56.428Z,1.03
2019-05-20T08:32:23.282Z,1.27
2019-05-20T08:34:50.277Z,1.20
2019-05-20T08:37:17.057Z,4.27
2019-05-20T08:39:43.810Z,1.50
2019-05-20T08:42:11.627Z,1.20
2019-05-20T08:44:38.502Z,1.40
2019-05-20T08:47:05.259Z,1.30
2019-05-20T08:49:32.091Z,1.43
2019-05-20T08:51:58.926Z,1.70
2019-05-20T08:54:25.719Z,2.07
2019-05-20T08:56:52.672Z,1.70
2019-05-20T08:59:19.438Z,1.20
2019-05-20T09:01:46.229Z,1.13
2019-05-20T09:04:13.190Z,1.17
2019-05-20T09:06:39.971Z,1.30
2019-05-20T09:09:06.744Z,1.83
2019-05-20T09:11:33.609Z,1.53
2019-05-20T09:14:00.539Z,1.50
2019-05-20T09:16:27.339Z,1.53
2019-05-20T09:18:54.369Z,1.30
2019-05-20T09:21:21.156Z,1.00
2019-05-20T09:23:47.927Z,1.83
2019-05-20T09:26:14.867Z,1.20
2019-05-20T09:28:41.668Z,1.00
2019-05-20T09:31:08.681Z,0.90
2019-05-20T09:33:36.496Z,1.33
2019-05-20T09:36:03.700Z,1.37
2019-05-20T09:38:30.493Z,0.90
2019-05-20T09:40:57.420Z,0.90
2019-05-20T09:43:24.300Z,1.00
2019-05-20T09:46:05.744Z,0.90
2019-05-20T09:48:19.875Z,0.97
2019-05-20T09:50:46.648Z,1.00
2019-05-20T09:53:13.470Z,1.10
2019-05-20T09:55:40.394Z,1.10
2019-05-20T09:58:07.378Z,0.80
2019-05-20T10:00:34.647Z,0.90
2019-05-20T10:03:01.563Z,0.87
2019-05-20T10:05:28.425Z,0.83
2019-05-20T10:07:55.233Z,1.20
2019-05-20T10:10:22.689Z,0.90
2019-05-20T10:12:49.465Z,0.90
2019-05-20T10:15:17.010Z,1.10
2019-05-20T10:17:44.033Z,1.90
2019-05-20T10:20:12.185Z,1.03
2019-05-20T10:22:38.969Z,0.90
2019-05-20T10:25:07.533Z,0.70
2019-05-20T10:27:34.294Z,0.80
2019-05-20T10:30:01.090Z,0.80
2019-05-20T10:32:27.919Z,0.70
2019-05-20T10:34:54.767Z,0.70
2019-05-20T10:37:21.632Z,0.80
2019-05-20T10:39:48.565Z,0.87
2019-05-20T10:42:15.350Z,0.77
2019-05-20T10:44:42.181Z,1.20
2019-05-20T10:47:09.070Z,1.30
2019-05-20T10:49:35.859Z,0.90
2019-05-20T10:52:02.659Z,1.07
2019-05-20T10:54:29.590Z,1.20
2019-05-20T10:56:59.567Z,1.10
2019-05-20T10:59:24.942Z,0.80
2019-05-20T11:01:51.893Z,0.83
2019-05-20T11:04:18.684Z,0.80
2019-05-20T11:06:45.491Z,0.97
2019-05-20T11:09:14.303Z,1.00
2019-05-20T11:11:40.984Z,1.20
2019-05-20T11:14:08.866Z,1.10
2019-05-20T11:16:35.712Z,0.77
2019-05-20T11:19:02.879Z,0.60
2019-05-20T11:21:29.828Z,0.73
2019-05-20T11:23:56.651Z,0.70
2019-05-20T11:26:23.424Z,1.00
2019-05-20T11:28:50.219Z,0.80
2019-05-20T11:31:17.162Z,1.60
2019-05-20T11:33:43.942Z,1.60
2019-05-20T11:36:12.075Z,1.10
2019-05-20T11:38:39.027Z,0.80
2019-05-20T11:41:07.546Z,1.00
2019-05-20T11:43:35.672Z,1.00
2019-05-20T11:46:02.653Z,1.00
2019-05-20T11:48:29.385Z,0.90
2019-05-20T11:50:56.175Z,0.60
2019-05-20T11:53:23.212Z,0.70
2019-05-20T11:55:50.003Z,0.63
2019-05-20T11:58:16.934Z,0.70
2019-05-20T12:00:43.861Z,0.80
2019-05-20T12:03:10.630Z,1.00
2019-05-20T12:05:42.410Z,0.80
2019-05-20T12:08:13.781Z,0.80
2019-05-20T12:10:43.510Z,0.70
2019-05-20T12:13:12.513Z,0.80
2019-05-20T12:15:42.303Z,1.00
2019-05-20T12:18:09.013Z,0.70
2019-05-20T12:20:35.776Z,1.03
2019-05-20T12:23:02.680Z,0.63
2019-05-20T12:25:29.420Z,0.70
2019-05-20T12:27:56.189Z,0.60
2019-05-20T12:30:23.072Z,0.60
2019-05-20T12:32:49.842Z,0.50
2019-05-20T12:35:16.614Z,0.70
2019-05-20T12:37:45.681Z,1.00
2019-05-20T12:40:13.944Z,1.70
2019-05-20T12:42:40.849Z,0.60
2019-05-20T12:45:08.932Z,0.67
2019-05-20T12:47:35.670Z,0.60
2019-05-20T12:50:04.345Z,0.80
2019-05-20T12:52:31.231Z,1.10
2019-05-20T12:55:17.666Z,0.57
2019-05-20T12:57:44.626Z,0.60
2019-05-20T13:00:14.879Z,0.90
2019-05-20T13:02:42.123Z,0.63
2019-05-20T13:05:09.443Z,0.80
2019-05-20T13:07:36.262Z,0.57
2019-05-20T13:10:26.645Z,1.00
2019-05-20T13:12:36.571Z,0.97
2019-05-20T13:15:08.487Z,1.50
2019-05-20T13:17:35.272Z,0.80
2019-05-20T13:20:02.345Z,0.63
2019-05-20T13:22:29.139Z,0.80
2019-05-20T13:24:55.927Z,0.80
2019-05-20T13:27:22.858Z,0.77
2019-05-20T13:29:49.625Z,0.60
2019-05-20T13:32:21.132Z,1.00
2019-05-20T13:34:48.325Z,1.00
2019-05-20T13:37:15.272Z,0.60
2019-05-20T13:39:45.848Z,0.60
2019-05-20T13:42:17.267Z,0.60
2019-05-20T13:44:44.091Z,0.67
2019-05-20T13:47:11.286Z,0.77
2019-05-20T13:49:38.387Z,0.70
2019-05-20T13:52:05.181Z,0.60
2019-05-20T13:54:32.124Z,0.50
2019-05-20T13:56:59.220Z,0.60
2019-05-20T13:59:26.269Z,0.40
2019-05-20T14:01:53.242Z,0.60
2019-05-20T14:04:20.324Z,0.50
2019-05-20T14:06:47.170Z,0.47
2019-05-20T14:09:13.997Z,0.40
2019-05-20T14:11:41.043Z,0.50
2019-05-20T14:14:08.193Z,0.60
2019-05-20T14:16:35.013Z,0.50
2019-05-20T14:19:01.963Z,0.40
2019-05-20T14:21:28.785Z,0.63
2019-05-20T14:23:55.724Z,0.50
2019-05-20T14:26:22.974Z,1.20
2019-05-20T14:28:52.674Z,1.03
2019-05-20T14:31:19.612Z,1.20
2019-05-20T14:33:46.809Z,1.00
2019-05-20T14:36:36.071Z,1.50
2019-05-20T14:38:42.387Z,0.90
2019-05-20T14:41:20.875Z,1.07
2019-05-20T14:43:38.202Z,1.30
2019-05-20T14:46:05.064Z,1.40
2019-05-20T14:48:32.842Z,1.07
2019-05-20T14:51:00.017Z,1.07
2019-05-20T14:53:26.785Z,1.10
2019-05-20T14:55:53.673Z,0.43
2019-05-20T14:58:20.518Z,0.80
2019-05-20T15:00:47.264Z,0.80
2019-05-20T15:03:14.246Z,1.13
2019-05-20T15:05:41.222Z,1.50
2019-05-20T15:08:07.991Z,0.87
2019-05-20T15:10:34.889Z,0.70
2019-05-20T15:13:01.620Z,1.10
2019-05-20T15:15:28.901Z,2.07
2019-05-20T15:17:55.753Z,1.77
2019-05-20T15:20:22.493Z,2.93
2019-05-20T15:22:49.228Z,2.90
2019-05-20T15:25:16.119Z,2.60
2019-05-20T15:27:42.886Z,2.50
2019-05-20T15:30:09.955Z,2.30
2019-05-20T15:32:36.862Z,1.73
2019-05-20T15:35:04.906Z,2.47
2019-05-20T15:37:31.668Z,1.70
2019-05-20T15:39:58.553Z,10.30
2019-05-20T15:42:25.300Z,3.20
2019-05-20T15:44:52.253Z,2.90
2019-05-20T15:47:19.252Z,1.80
2019-05-20T15:49:46.168Z,2.07
2019-05-20T15:52:12.923Z,1.53
2019-05-20T15:54:39.741Z,1.30
2019-05-20T15:57:06.492Z,1.10
2019-05-20T15:59:45.565Z,2.77
2019-05-20T16:02:02.007Z,1.30
2019-05-20T16:04:28.829Z,1.00
2019-05-20T16:06:55.591Z,1.03
2019-05-20T16:09:22.391Z,0.90
2019-05-20T16:11:49.124Z,0.80
2019-05-20T16:14:15.899Z,1.00
2019-05-20T16:16:42.901Z,0.60
2019-05-20T16:19:09.606Z,0.57
2019-05-20T16:21:36.369Z,0.80
2019-05-20T16:24:03.416Z,0.60
2019-05-20T16:26:30.247Z,0.70
2019-05-20T16:28:57.001Z,1.37
2019-05-20T16:31:23.982Z,1.30
2019-05-20T16:33:50.713Z,1.20
2019-05-20T16:36:17.487Z,0.90
2019-05-20T16:38:44.532Z,1.13
2019-05-20T16:41:11.283Z,0.90
2019-05-20T16:43:38.100Z,1.10
2019-05-20T16:46:04.889Z,1.00
2019-05-20T16:48:31.633Z,0.70
2019-05-20T16:50:58.378Z,0.80
2019-05-20T16:53:25.292Z,0.50
2019-05-20T16:55:52.173Z,0.80
2019-05-20T16:58:18.920Z,0.80
2019-05-20T17:00:45.996Z,0.60
2019-05-20T17:03:12.761Z,1.10
2019-05-20T17:05:39.504Z,1.00
2019-05-20T17:08:07.437Z,1.13
2019-05-20T17:10:34.196Z,0.67
2019-05-20T17:13:00.940Z,0.70
2019-05-20T17:15:27.882Z,1.00
2019-05-20T17:17:54.619Z,0.90
2019-05-20T17:20:21.368Z,0.60
2019-05-20T17:22:48.275Z,0.70
2019-05-20T17:25:15.127Z,0.60
2019-05-20T17:27:43.861Z,0.70
2019-05-20T17:30:11.339Z,0.90
2019-05-20T17:32:38.099Z,0.63
2019-05-20T17:35:05.496Z,1.10
2019-05-20T17:37:32.324Z,1.37
2019-05-20T17:39:59.153Z,1.07
2019-05-20T17:42:25.886Z,1.00
2019-05-20T17:44:52.710Z,1.10
2019-05-20T17:47:19.444Z,1.37
2019-05-20T17:49:46.443Z,1.20
2019-05-20T17:52:13.349Z,1.10
2019-05-20T17:54:40.083Z,1.30
2019-05-20T17:57:06.838Z,1.80
2019-05-20T17:59:33.742Z,1.40
2019-05-20T18:02:00.683Z,1.07
2019-05-20T18:04:27.458Z,1.10
2019-05-20T18:06:54.270Z,0.87
2019-05-20T18:09:21.747Z,0.87
2019-05-20T18:11:50.452Z,0.90
2019-05-20T18:14:17.253Z,0.70
2019-05-20T18:16:43.994Z,0.90
2019-05-20T18:19:10.720Z,1.20
2019-05-20T18:21:39.718Z,1.40
2019-05-20T18:24:06.277Z,1.90
2019-05-20T18:26:33.017Z,2.57
2019-05-20T18:28:59.915Z,1.67
2019-05-20T18:31:32.516Z,1.53
2019-05-20T18:33:55.251Z,0.80
2019-05-20T18:36:22.235Z,1.20
2019-05-20T18:38:49.772Z,1.07
2019-05-20T18:41:22.663Z,0.87
2019-05-20T18:43:50.905Z,0.80
2019-05-20T18:46:17.651Z,0.90
2019-05-20T18:48:44.430Z,0.70
2019-05-20T18:51:11.210Z,0.60
2019-05-20T18:53:37.977Z,0.90
2019-05-20T18:56:04.729Z,0.80
2019-05-20T18:58:31.753Z,1.10
2019-05-20T19:00:58.514Z,0.73
2019-05-20T19:03:25.849Z,0.67
2019-05-20T19:05:53.463Z,0.80
2019-05-20T19:08:20.284Z,0.90
2019-05-20T19:10:47.036Z,1.00
2019-05-20T19:13:13.917Z,1.17
2019-05-20T19:15:40.643Z,1.10
2019-05-20T19:18:07.488Z,0.70
2019-05-20T19:20:34.299Z,1.00
2019-05-20T19:23:01.052Z,0.70
2019-05-20T19:25:37.463Z,0.90
2019-05-20T19:27:56.587Z,0.80
2019-05-20T19:30:23.324Z,0.83
2019-05-20T19:32:50.046Z,0.90
2019-05-20T19:35:16.933Z,0.80
2019-05-20T19:37:43.670Z,0.70
2019-05-20T19:40:11.108Z,0.87
2019-05-20T19:42:37.945Z,1.03
2019-05-20T19:45:05.264Z,1.07
2019-05-20T19:47:32.009Z,0.90
2019-05-20T19:49:58.943Z,0.90
2019-05-20T19:52:25.712Z,0.90
2019-05-20T19:54:52.468Z,1.00
2019-05-20T19:57:19.360Z,1.10
2019-05-20T19:59:46.111Z,1.00
2019-05-20T20:02:17.515Z,0.73
2019-05-20T20:04:41.570Z,0.90
2019-05-20T20:07:08.338Z,0.90
2019-05-20T20:09:35.087Z,0.80
2019-05-20T20:12:01.882Z,1.00
2019-05-20T20:14:28.637Z,0.90
2019-05-20T20:16:55.420Z,0.90
2019-05-20T20:19:22.352Z,0.80
2019-05-20T20:21:49.080Z,0.80
2019-05-20T20:24:15.824Z,0.83
2019-05-20T20:26:42.822Z,0.70
2019-05-20T20:29:11.227Z,0.53
2019-05-20T20:31:38.130Z,0.60
2019-05-20T20:34:05.542Z,0.83
2019-05-20T20:36:32.293Z,0.73
2019-05-20T20:38:59.043Z,0.97
2019-05-20T20:41:25.876Z,0.93
2019-05-20T20:43:52.602Z,1.10
2019-05-20T20:46:19.356Z,0.90
2019-05-20T20:48:46.256Z,0.90
2019-05-20T20:51:13.004Z,0.90
2019-05-20T20:53:39.757Z,0.83
2019-05-20T20:56:06.632Z,0.70
2019-05-20T20:58:33.387Z,0.60
2019-05-20T21:01:00.110Z,0.70
2019-05-20T21:03:26.926Z,0.43
2019-05-20T21:05:53.706Z,0.73
2019-05-20T21:08:20.450Z,0.70
2019-05-20T21:10:47.372Z,1.00
2019-05-20T21:13:14.112Z,0.90
2019-05-20T21:15:40.869Z,0.90
2019-05-20T21:18:07.672Z,1.00
2019-05-20T21:20:34.414Z,0.90
2019-05-20T21:23:01.168Z,0.80
2019-05-20T21:25:28.051Z,0.90
2019-05-20T21:27:54.831Z,0.70
2019-05-20T21:30:21.587Z,0.97
2019-05-20T21:32:48.383Z,0.90
2019-05-20T21:35:15.120Z,0.90
2019-05-20T21:37:41.867Z,1.20
2019-05-20T21:40:08.776Z,0.80
2019-05-20T21:42:35.530Z,0.90
2019-05-20T21:45:05.571Z,0.90
2019-05-20T21:47:32.370Z,1.00
2019-05-20T21:49:59.176Z,0.83
2019-05-20T21:52:25.852Z,0.80
2019-05-20T21:54:52.644Z,0.80
2019-05-20T21:57:19.396Z,0.70
2019-05-20T21:59:46.145Z,0.80
2019-05-20T22:02:12.960Z,1.00
2019-05-20T22:04:39.710Z,0.77
2019-05-20T22:07:06.479Z,0.80
2019-05-20T22:09:33.376Z,0.73
2019-05-20T22:12:00.112Z,0.57
2019-05-20T22:14:26.880Z,1.07
2019-05-20T22:16:53.767Z,0.70
2019-05-20T22:19:20.821Z,0.70
2019-05-20T22:21:47.559Z,0.83
2019-05-20T22:24:14.472Z,0.80
2019-05-20T22:26:41.184Z,0.80
2019-05-20T22:29:07.925Z,0.80
2019-05-20T22:31:34.801Z,0.80
2019-05-20T22:34:01.532Z,0.80
2019-05-20T22:36:28.284Z,0.60
2019-05-20T22:38:56.072Z,0.80
2019-05-20T22:41:22.816Z,0.80
2019-05-20T22:43:49.541Z,0.60
2019-05-20T22:46:16.440Z,0.67
2019-05-20T22:48:43.201Z,0.60
2019-05-20T22:51:09.930Z,0.60
2019-05-20T22:53:36.759Z,0.60
2019-05-20T22:56:03.521Z,0.60
2019-05-20T22:58:30.300Z,0.70
2019-05-20T23:00:57.097Z,0.60
2019-05-20T23:03:23.852Z,0.50
2019-05-20T23:05:50.586Z,0.70
2019-05-20T23:08:18.436Z,0.60
2019-05-20T23:10:45.188Z,0.70
2019-05-20T23:13:11.910Z,0.53
2019-05-20T23:15:38.831Z,0.70
2019-05-20T23:18:05.572Z,0.60
2019-05-20T23:20:32.295Z,0.70
2019-05-20T23:22:59.081Z,0.70
2019-05-20T23:25:25.863Z,0.63
2019-05-20T23:27:52.610Z,0.50
2019-05-20T23:30:19.507Z,0.60
2019-05-20T23:32:46.256Z,0.80
2019-05-20T23:35:13.207Z,0.67
2019-05-20T23:37:40.109Z,0.67
2019-05-20T23:40:07.586Z,0.63
2019-05-20T23:42:34.338Z,0.70
2019-05-20T23:45:01.316Z,0.70
2019-05-20T23:47:28.075Z,0.60
2019-05-20T23:49:54.848Z,0.70
2019-05-20T23:52:21.733Z,0.60
2019-05-20T23:54:48.524Z,0.60
2019-05-20T23:57:15.259Z,0.60
2019-05-20T23:59:42.104Z,0.90
